Time;durP1;ratioP1;P1;durP2;ratioP2;P2;SDS_P1;SDS_P2;PMS_P1;PMS_P2;Temp;Humidity;BMP_temperature;BMP_pressure;BME280_temperature;BME280_humidity;BME280_pressure;Samples;Min_cycle;Max_cycle;Signal;HPM_P1;HPM_P2
2021/12/01 00:00:41;;;;;;;1.80;0.87;;;2.80;99.90;2.50;99382.00;;;;5017317;27;86855;-66
2021/12/01 00:03:07;;;;;;;2.47;0.97;;;2.80;99.90;2.50;99382.00;;;;5015383;27;118171;-65
2021/12/01 00:05:36;;;;;;;1.87;1.07;;;2.80;99.90;2.50;99387.00;;;;5016177;27;87232;-64
2021/12/01 00:08:03;;;;;;;1.87;1.00;;;2.60;99.90;2.50;99376.00;;;;5015571;27;88865;-64
2021/12/01 00:10:34;;;;;;;7.17;1.03;;;2.70;99.90;2.50;99376.00;;;;5016451;27;87683;-64
2021/12/01 00:13:13;;;;;;;3.10;1.40;;;2.80;99.90;2.40;99372.00;;;;5015644;27;88418;-65
2021/12/01 00:15:40;;;;;;;1.93;1.53;;;2.70;99.90;2.40;99377.00;;;;5015907;27;88627;-65
2021/12/01 00:18:06;;;;;;;2.80;1.60;;;2.60;99.90;2.30;99392.00;;;;5014247;27;87858;-65
2021/12/01 00:20:32;;;;;;;2.00;1.03;;;2.60;99.90;2.30;99382.00;;;;5014988;27;87844;-65
2021/12/01 00:22:59;;;;;;;6.17;1.40;;;2.50;99.90;2.30;99379.00;;;;4997372;27;91645;-65
2021/12/01 00:25:25;;;;;;;3.90;1.73;;;2.50;99.90;2.20;99387.00;;;;4996110;28;88549;-65
2021/12/01 00:27:53;;;;;;;5.73;1.23;;;3.00;99.90;2.20;99375.00;;;;5014990;27;87711;-65
2021/12/01 00:30:20;;;;;;;3.53;1.30;;;2.50;99.90;2.10;99372.00;;;;5016456;27;87790;-65
2021/12/01 00:32:46;;;;;;;4.90;1.27;;;2.40;99.90;2.10;99363.00;;;;5010724;27;91022;-65
2021/12/01 00:35:12;;;;;;;1.80;1.13;;;2.50;99.90;2.00;99363.00;;;;4995787;27;105883;-64
2021/12/01 00:37:42;;;;;;;2.00;0.90;;;2.30;99.90;2.00;99355.00;;;;4997120;27;87890;-65
2021/12/01 00:40:11;;;;;;;1.50;0.73;;;2.20;99.90;2.00;99360.00;;;;4994286;27;88177;-65
2021/12/01 00:42:37;;;;;;;2.40;1.00;;;2.20;99.90;1.90;99345.00;;;;4995858;27;87958;-65
2021/12/01 00:45:12;;;;;;;5.60;1.27;;;2.20;99.90;1.90;99356.00;;;;4995937;27;88732;-66
2021/12/01 00:47:50;;;;;;;6.10;1.43;;;2.10;99.90;1.80;99357.00;;;;4997497;27;87770;-65
2021/12/01 00:50:22;;;;;;;3.17;1.73;;;2.00;99.90;1.70;99369.00;;;;4999508;28;87032;-65
2021/12/01 00:52:48;;;;;;;5.70;1.47;;;2.10;99.90;1.70;99351.00;;;;4998865;27;89183;-65
2021/12/01 00:55:14;;;;;;;1.43;1.17;;;2.10;99.90;1.60;99356.00;;;;5015224;27;88008;-65
2021/12/01 00:57:40;;;;;;;5.23;1.67;;;2.00;99.90;1.60;99360.00;;;;5016720;27;88809;-65
2021/12/01 01:00:08;;;;;;;4.10;1.43;;;2.00;99.90;1.60;99355.00;;;;5019223;27;87429;-64
2021/12/01 01:02:36;;;;;;;2.30;1.37;;;1.90;99.90;1.60;99354.00;;;;5017592;27;88043;-65
2021/12/01 01:05:05;;;;;;;6.53;1.40;;;2.50;99.90;1.60;99359.00;;;;4996919;28;99464;-64
2021/12/01 01:07:30;;;;;;;1.20;0.73;;;1.90;99.90;1.70;99350.00;;;;4998419;27;89352;-65
2021/12/01 01:09:59;;;;;;;2.27;0.97;;;2.00;99.90;1.80;99347.00;;;;4999051;28;87616;-65
2021/12/01 01:18:08;;;;;;;5.20;0.90;;;2.10;99.90;1.90;99342.00;;;;5014076;27;87772;-64
2021/12/01 01:20:35;;;;;;;2.87;1.00;;;2.20;99.90;2.00;99333.00;;;;4999037;27;87678;-65
2021/12/01 01:23:01;;;;;;;5.17;1.77;;;2.20;99.90;2.00;99331.00;;;;4996036;27;91890;-64
2021/12/01 01:25:28;;;;;;;3.83;1.53;;;2.20;99.90;2.00;99328.00;;;;4998524;27;89473;-65
2021/12/01 01:27:54;;;;;;;11.10;1.87;;;2.20;99.90;2.00;99319.00;;;;4999683;27;87869;-63
2021/12/01 01:30:20;;;;;;;1.43;1.00;;;2.30;99.90;2.00;99326.00;;;;4998029;28;107775;-65
2021/12/01 01:32:46;;;;;;;4.33;0.67;;;2.90;99.90;2.00;99319.00;;;;5000260;27;103613;-64
2021/12/01 01:35:15;;;;;;;4.27;1.37;;;2.70;99.90;2.00;99325.00;;;;5018729;27;88183;-64
2021/12/01 01:37:41;;;;;;;4.73;1.30;;;2.20;99.90;1.90;99329.00;;;;5017209;27;87866;-65
2021/12/01 01:40:09;;;;;;;5.93;1.33;;;2.90;99.90;1.90;99318.00;;;;5019594;27;86755;-66
2021/12/01 01:42:34;;;;;;;3.50;1.00;;;2.20;99.90;1.90;99319.00;;;;5017168;27;99558;-64
2021/12/01 01:45:00;;;;;;;2.27;1.20;;;2.60;99.90;1.90;99320.00;;;;5016571;27;87976;-65
2021/12/01 01:47:26;;;;;;;4.87;1.60;;;3.50;99.90;1.90;99314.00;;;;4997555;27;110861;-65
2021/12/01 01:49:57;;;;;;;2.13;0.83;;;2.20;99.90;2.00;99320.00;;;;4997432;28;110219;-66
2021/12/01 01:52:26;;;;;;;6.20;1.57;;;2.70;99.90;2.00;99315.00;;;;4997994;28;88509;-65
2021/12/01 01:54:52;;;;;;;4.10;1.13;;;2.20;99.90;2.10;99326.00;;;;5016639;27;88415;-65
2021/12/01 01:57:17;;;;;;;5.93;1.70;;;2.30;99.90;2.10;99321.00;;;;5018156;27;96115;-65
2021/12/01 01:59:43;;;;;;;11.80;2.53;;;3.10;99.90;2.20;99307.00;;;;4998461;27;109271;-65
2021/12/01 02:02:09;;;;;;;4.20;2.10;;;2.90;99.90;2.20;99315.00;;;;4997357;28;108492;-65
2021/12/01 02:04:34;;;;;;;4.60;1.33;;;2.90;99.90;2.20;99300.00;;;;4997480;27;117743;-65
2021/12/01 02:07:03;;;;;;;4.37;1.93;;;2.60;99.90;2.30;99294.00;;;;4997470;28;105242;-65
2021/12/01 02:09:29;;;;;;;2.97;1.30;;;2.50;99.90;2.30;99290.00;;;;4998677;27;87729;-65
2021/12/01 02:12:01;;;;;;;2.70;1.33;;;2.60;99.90;2.40;99277.00;;;;4997542;27;89690;-65
2021/12/01 02:14:28;;;;;;;3.70;1.43;;;2.60;99.90;2.40;99265.00;;;;5010551;27;88003;-66
2021/12/01 02:16:55;;;;;;;6.13;1.70;;;2.60;99.90;2.40;99273.00;;;;5018343;27;87797;-65
2021/12/01 02:19:22;;;;;;;4.53;1.30;;;2.60;99.90;2.40;99266.00;;;;5017921;27;87771;-65
2021/12/01 02:21:48;;;;;;;7.37;1.80;;;2.90;99.90;2.50;99271.00;;;;5009896;27;89824;-65
2021/12/01 02:24:16;;;;;;;2.07;1.10;;;2.80;99.90;2.50;99264.00;;;;5011880;27;89466;-65
2021/12/01 02:26:47;;;;;;;1.50;0.77;;;3.20;99.90;2.50;99275.00;;;;5018069;27;87603;-65
2021/12/01 02:29:22;;;;;;;1.50;0.97;;;3.20;99.90;2.60;99272.00;;;;5016575;27;86913;-65
2021/12/01 02:31:49;;;;;;;7.13;1.43;;;2.70;99.90;2.60;99266.00;;;;5016158;27;88083;-65
2021/12/01 02:34:23;;;;;;;2.83;1.40;;;3.10;99.90;2.70;99255.00;;;;5017159;27;88581;-65
2021/12/01 02:36:58;;;;;;;2.67;1.10;;;2.90;99.90;2.70;99254.00;;;;5017956;27;88561;-65
2021/12/01 02:39:24;;;;;;;4.47;1.53;;;2.90;99.90;2.70;99248.00;;;;5017135;27;87886;-65
2021/12/01 02:41:55;;;;;;;1.83;1.20;;;3.00;99.90;2.80;99248.00;;;;5007235;27;98569;-65
2021/12/01 02:44:21;;;;;;;2.27;1.43;;;2.90;99.90;2.80;99241.00;;;;4997355;27;88385;-65
2021/12/01 02:46:48;;;;;;;4.83;1.20;;;3.10;99.90;2.90;99252.00;;;;4997460;27;88302;-65
2021/12/01 02:49:22;;;;;;;1.00;0.90;;;3.10;99.90;3.00;99243.00;;;;5005176;27;87805;-65
2021/12/01 02:51:49;;;;;;;1.07;0.50;;;3.10;99.90;3.00;99241.00;;;;5017543;27;88159;-65
2021/12/01 02:54:15;;;;;;;1.23;0.90;;;3.20;99.90;3.10;99235.00;;;;5017256;27;88513;-65
2021/12/01 02:56:48;;;;;;;5.47;1.33;;;3.30;99.90;3.20;99240.00;;;;5018160;27;87706;-65
2021/12/01 02:59:14;;;;;;;1.80;0.97;;;3.30;99.90;3.20;99238.00;;;;5017249;27;88051;-65
2021/12/01 03:01:40;;;;;;;1.90;1.23;;;3.40;99.90;3.30;99233.00;;;;5016237;27;98920;-65
2021/12/01 03:04:07;;;;;;;1.80;1.13;;;3.50;99.90;3.40;99234.00;;;;5002392;27;118276;-66
2021/12/01 03:06:36;;;;;;;2.63;1.17;;;3.60;99.90;3.50;99227.00;;;;4997617;28;88009;-65
2021/12/01 03:09:06;;;;;;;7.20;1.07;;;3.60;99.90;3.50;99223.00;;;;5001297;27;88005;-65
2021/12/01 03:11:33;;;;;;;0.60;0.50;;;3.70;99.90;3.60;99223.00;;;;5016365;27;88403;-65
2021/12/01 03:13:59;;;;;;;3.03;0.97;;;3.70;99.90;3.60;99218.00;;;;5016288;27;88158;-65
2021/12/01 03:16:24;;;;;;;0.50;0.50;;;3.80;99.90;3.70;99221.00;;;;5017566;27;87696;-65
2021/12/01 03:18:51;;;;;;;3.03;1.13;;;3.80;99.90;3.70;99216.00;;;;5016119;27;101095;-65
2021/12/01 03:21:17;;;;;;;2.93;0.90;;;3.90;99.90;3.80;99209.00;;;;5017130;27;87931;-65
2021/12/01 03:23:43;;;;;;;5.93;1.20;;;3.90;99.90;3.80;99209.00;;;;5016893;27;88032;-66
2021/12/01 03:26:11;;;;;;;3.93;1.37;;;4.00;99.90;3.90;99210.00;;;;5015591;27;96429;-66
2021/12/01 03:28:38;;;;;;;4.07;0.83;;;4.10;99.90;3.90;99211.00;;;;5015286;27;87826;-67
2021/12/01 03:31:04;;;;;;;2.13;0.50;;;4.10;99.90;3.90;99209.00;;;;5017272;27;87668;-66
2021/12/01 03:33:31;;;;;;;0.93;0.70;;;4.10;99.90;4.00;99202.00;;;;5013649;27;106639;-66
2021/12/01 03:35:56;;;;;;;4.10;1.00;;;4.10;99.90;4.00;99197.00;;;;5015286;27;87649;-66
2021/12/01 03:38:28;;;;;;;4.60;0.90;;;4.10;99.90;4.00;99192.00;;;;4999400;27;108854;-65
2021/12/01 03:40:56;;;;;;;1.70;1.07;;;4.30;99.90;4.10;99194.00;;;;4996781;28;88332;-65
2021/12/01 03:43:22;;;;;;;0.80;0.60;;;4.50;99.90;4.10;99201.00;;;;4996353;27;88596;-67
2021/12/01 03:45:48;;;;;;;0.67;0.63;;;4.20;99.90;4.10;99182.00;;;;4997030;27;87999;-67
2021/12/01 03:48:13;;;;;;;6.27;1.23;;;4.30;99.90;4.10;99172.00;;;;4995337;27;108124;-66
2021/12/01 03:50:40;;;;;;;2.03;1.00;;;4.20;99.90;4.10;99166.00;;;;4995644;28;105425;-67
2021/12/01 03:53:06;;;;;;;1.07;0.97;;;4.30;99.90;4.10;99166.00;;;;4996103;27;89547;-68
2021/12/01 03:55:32;;;;;;;1.17;0.93;;;4.30;99.90;4.10;99159.00;;;;4995756;27;110449;-67
2021/12/01 03:57:58;;;;;;;3.10;1.43;;;4.30;99.90;4.10;99158.00;;;;4996381;27;87664;-68
2021/12/01 04:00:23;;;;;;;1.00;0.80;;;4.30;99.90;4.10;99142.00;;;;4996307;28;87914;-67
2021/12/01 04:02:49;;;;;;;2.23;0.93;;;4.30;99.90;4.20;99147.00;;;;4995116;27;117500;-66
2021/12/01 04:05:16;;;;;;;1.00;0.73;;;4.30;99.90;4.10;99140.00;;;;5005504;27;110089;-67
2021/12/01 04:07:42;;;;;;;1.50;1.10;;;4.30;99.90;4.20;99132.00;;;;5015501;27;90637;-68
2021/12/01 04:10:14;;;;;;;1.63;0.73;;;4.30;99.90;4.20;99128.00;;;;5015109;27;117462;-68
2021/12/01 04:12:41;;;;;;;7.87;1.43;;;4.30;99.90;4.10;99124.00;;;;5016029;27;87781;-68
2021/12/01 04:15:08;;;;;;;2.67;0.90;;;4.30;99.90;4.20;99130.00;;;;5015237;27;88620;-68
2021/12/01 04:17:34;;;;;;;8.90;1.40;;;4.40;99.90;4.20;99115.00;;;;5016539;27;87818;-68
2021/12/01 04:20:00;;;;;;;2.10;1.13;;;4.40;99.90;4.20;99115.00;;;;5015699;27;87730;-67
2021/12/01 04:22:26;;;;;;;2.30;1.40;;;4.40;99.90;4.20;99114.00;;;;5002915;27;87843;-68
2021/12/01 04:24:52;;;;;;;0.70;0.60;;;4.30;99.90;4.20;99115.00;;;;4998781;27;110034;-70
2021/12/01 04:27:18;;;;;;;1.80;1.10;;;4.40;99.90;4.20;99099.00;;;;4999734;27;87955;-70
2021/12/01 04:29:43;;;;;;;7.73;1.57;;;4.40;99.90;4.20;99097.00;;;;5000051;27;88611;-70
2021/12/01 04:32:09;;;;;;;1.23;0.83;;;4.40;99.90;4.20;99094.00;;;;5000110;27;87998;-69
2021/12/01 04:34:38;;;;;;;2.47;1.40;;;4.40;99.90;4.20;99079.00;;;;5018370;27;110846;-70
2021/12/01 04:37:05;;;;;;;1.43;1.10;;;4.40;99.90;4.20;99076.00;;;;5018484;27;108460;-69
2021/12/01 04:39:32;;;;;;;1.07;0.67;;;4.40;99.90;4.20;99056.00;;;;5016236;27;89282;-69
2021/12/01 04:42:07;;;;;;;2.97;1.40;;;4.40;99.90;4.20;99059.00;;;;5009421;27;90096;-68
2021/12/01 04:44:36;;;;;;;1.60;0.73;;;4.40;99.90;4.20;99053.00;;;;5018703;27;87581;-68
2021/12/01 04:47:08;;;;;;;0.90;0.50;;;4.40;99.90;4.20;99043.00;;;;5006307;27;87789;-68
2021/12/01 04:49:37;;;;;;;2.53;1.13;;;4.40;99.90;4.20;99038.00;;;;4996754;28;87866;-68
2021/12/01 04:52:04;;;;;;;3.17;1.57;;;4.50;99.90;4.20;99033.00;;;;4998584;28;87963;-69
2021/12/01 04:54:30;;;;;;;5.07;1.20;;;4.90;99.90;4.20;99028.00;;;;4998406;27;93561;-69
2021/12/01 04:56:57;;;;;;;3.13;0.90;;;4.40;99.90;4.30;99023.00;;;;4999896;27;86877;-69
2021/12/01 04:59:23;;;;;;;7.03;1.40;;;4.40;99.90;4.30;99019.00;;;;4998150;27;111924;-69
2021/12/01 05:01:53;;;;;;;0.70;0.70;;;4.40;99.90;4.30;99011.00;;;;4998928;27;89579;-68
2021/12/01 05:04:19;;;;;;;4.53;1.03;;;4.40;99.90;4.30;99005.00;;;;5017982;27;88959;-67
2021/12/01 05:06:45;;;;;;;3.13;1.30;;;4.40;99.90;4.30;99000.00;;;;5018763;27;91298;-67
2021/12/01 05:09:11;;;;;;;1.77;0.90;;;4.40;99.90;4.30;99003.00;;;;5018612;27;87764;-68
2021/12/01 05:11:37;;;;;;;5.03;1.57;;;4.40;99.90;4.30;98984.00;;;;4999147;27;100646;-66
2021/12/01 05:14:03;;;;;;;4.77;1.27;;;4.40;99.90;4.30;98985.00;;;;5016742;27;87960;-65
2021/12/01 05:16:29;;;;;;;1.80;1.17;;;4.50;99.90;4.30;98983.00;;;;5019124;27;87787;-65
2021/12/01 05:18:55;;;;;;;2.90;1.47;;;4.40;99.90;4.30;98980.00;;;;5002727;27;117270;-66
2021/12/01 05:21:21;;;;;;;1.87;1.37;;;4.40;99.90;4.30;98977.00;;;;4999298;27;105397;-67
2021/12/01 05:23:47;;;;;;;3.93;1.33;;;4.50;99.90;4.30;98971.00;;;;4998699;27;87983;-66
2021/12/01 05:26:13;;;;;;;3.13;1.50;;;4.40;99.90;4.30;98962.00;;;;4999021;28;87969;-65
2021/12/01 05:28:40;;;;;;;1.30;1.13;;;4.50;99.90;4.30;98962.00;;;;4997745;27;119257;-66
2021/12/01 05:31:07;;;;;;;1.67;1.33;;;4.50;99.90;4.40;98958.00;;;;5010075;27;89627;-65
2021/12/01 05:33:34;;;;;;;1.00;0.83;;;4.50;99.90;4.40;98955.00;;;;5017391;27;88073;-66
2021/12/01 05:36:00;;;;;;;1.57;1.33;;;4.60;99.90;4.40;98942.00;;;;5019033;27;87862;-66
2021/12/01 05:38:26;;;;;;;1.57;1.43;;;4.50;99.90;4.40;98942.00;;;;5016260;27;88241;-68
2021/12/01 05:40:52;;;;;;;1.03;0.97;;;4.60;99.90;4.40;98937.00;;;;5018585;27;88108;-66
2021/12/01 05:43:19;;;;;;;5.83;1.07;;;4.60;99.90;4.40;98928.00;;;;5016332;27;87850;-66
2021/12/01 05:45:46;;;;;;;2.00;1.10;;;4.60;99.90;4.40;98925.00;;;;5018875;27;86943;-68
2021/12/01 05:48:13;;;;;;;7.13;2.17;;;4.60;99.90;4.50;98928.00;;;;5017530;27;88596;-66
2021/12/01 05:50:38;;;;;;;4.37;1.57;;;4.70;99.90;4.50;98914.00;;;;5017752;27;99741;-66
2021/12/01 05:53:04;;;;;;;4.47;2.00;;;4.60;99.90;4.50;98908.00;;;;5015988;27;109577;-66
2021/12/01 05:55:31;;;;;;;1.43;1.23;;;4.60;99.90;4.50;98904.00;;;;5018710;27;87557;-66
2021/12/01 05:57:57;;;;;;;3.20;1.47;;;4.60;99.90;4.50;98908.00;;;;5013060;27;89085;-66
2021/12/01 06:00:23;;;;;;;7.30;2.10;;;4.70;99.90;4.50;98901.00;;;;4997806;28;88795;-67
2021/12/01 06:02:51;;;;;;;4.63;1.80;;;4.60;99.90;4.50;98899.00;;;;4997396;27;87652;-67
2021/12/01 06:05:19;;;;;;;3.40;1.50;;;4.70;99.90;4.50;98901.00;;;;4998104;28;87689;-66
2021/12/01 06:07:46;;;;;;;2.30;2.10;;;4.70;99.90;4.60;98893.00;;;;4997407;27;89062;-67
2021/12/01 06:10:12;;;;;;;2.77;2.00;;;4.70;99.90;4.60;98892.00;;;;4997816;27;88401;-69
2021/12/01 06:12:40;;;;;;;2.17;1.30;;;4.80;99.90;4.60;98879.00;;;;4997436;27;88286;-69
2021/12/01 06:15:11;;;;;;;3.00;1.53;;;4.80;99.90;4.60;98870.00;;;;4995395;27;88058;-68
2021/12/01 06:17:37;;;;;;;1.60;1.50;;;4.80;99.90;4.60;98871.00;;;;4997246;27;89346;-68
2021/12/01 06:20:05;;;;;;;1.63;1.40;;;4.80;99.90;4.60;98868.00;;;;4996872;28;117316;-67
2021/12/01 06:22:31;;;;;;;1.83;1.20;;;4.80;99.90;4.60;98874.00;;;;4998573;27;87718;-69
2021/12/01 06:24:57;;;;;;;1.60;1.20;;;4.80;99.90;4.70;98866.00;;;;4995938;28;87734;-67
2021/12/01 06:27:25;;;;;;;2.20;1.60;;;4.80;99.90;4.70;98861.00;;;;5010670;27;117362;-66
2021/12/01 06:29:52;;;;;;;3.07;1.63;;;4.80;99.90;4.70;98855.00;;;;5000729;27;89121;-67
2021/12/01 06:32:18;;;;;;;2.43;1.50;;;4.90;99.90;4.70;98849.00;;;;4997685;28;87877;-66
2021/12/01 06:34:44;;;;;;;2.17;1.10;;;4.90;99.90;4.80;98846.00;;;;4997483;28;94341;-66
2021/12/01 06:37:10;;;;;;;1.40;1.27;;;4.90;99.90;4.80;98844.00;;;;4997299;27;89079;-66
2021/12/01 06:39:35;;;;;;;1.70;1.27;;;5.10;99.90;4.80;98849.00;;;;5014062;27;89095;-66
2021/12/01 06:42:01;;;;;;;3.07;1.57;;;5.00;99.90;4.90;98841.00;;;;5015183;27;111350;-66
2021/12/01 06:44:30;;;;;;;3.33;2.13;;;5.50;99.90;4.90;98829.00;;;;5015889;27;87699;-66
2021/12/01 06:46:57;;;;;;;4.17;1.93;;;5.00;99.90;4.90;98834.00;;;;4995510;28;87716;-66
2021/12/01 06:49:23;;;;;;;1.87;1.57;;;5.10;99.90;4.90;98823.00;;;;5004480;27;88005;-66
2021/12/01 06:51:48;;;;;;;1.40;1.03;;;5.00;99.90;5.00;98830.00;;;;4996453;27;111001;-67
2021/12/01 06:54:14;;;;;;;2.67;1.53;;;5.20;99.90;5.00;98821.00;;;;5000352;27;108747;-66
2021/12/01 06:56:39;;;;;;;1.03;0.87;;;5.10;99.90;5.10;98832.00;;;;4994045;27;117599;-66
2021/12/01 06:59:05;;;;;;;1.53;0.83;;;5.30;99.90;5.10;98833.00;;;;4993129;27;118464;-67
2021/12/01 07:01:31;;;;;;;0.80;0.73;;;5.10;99.90;5.20;98836.00;;;;4994259;27;87679;-68
2021/12/01 07:03:57;;;;;;;2.33;0.73;;;5.30;99.90;5.20;98826.00;;;;4993785;27;109268;-66
2021/12/01 07:06:22;;;;;;;2.00;0.83;;;5.30;99.90;5.20;98817.00;;;;4990443;27;117277;-66
2021/12/01 07:08:48;;;;;;;0.23;0.23;;;5.40;99.90;5.20;98816.00;;;;4992476;27;118426;-66
2021/12/01 07:11:14;;;;;;;3.60;0.73;;;5.30;99.90;5.30;98806.00;;;;4993278;27;111134;-67
2021/12/01 07:13:39;;;;;;;0.67;0.37;;;5.40;99.90;5.30;98810.00;;;;4992905;27;108902;-67
2021/12/01 07:16:05;;;;;;;0.40;0.20;;;5.40;99.90;5.30;98806.00;;;;4998962;27;93439;-66
2021/12/01 07:18:31;;;;;;;0.73;0.23;;;5.40;99.90;5.30;98807.00;;;;4993679;27;117743;-66
2021/12/01 07:20:58;;;;;;;0.60;0.43;;;5.40;99.90;5.30;98799.00;;;;4993869;27;88060;-66
2021/12/01 07:23:23;;;;;;;0.33;0.33;;;5.40;99.90;5.40;98799.00;;;;4996200;27;87233;-65
2021/12/01 07:25:50;;;;;;;0.20;0.20;;;5.40;99.90;5.40;98805.00;;;;4993469;27;89129;-66
2021/12/01 07:28:15;;;;;;;0.10;0.10;;;5.50;99.90;5.40;98793.00;;;;4993277;27;87932;-66
2021/12/01 07:30:41;;;;;;;0.37;0.37;;;5.50;99.90;5.40;98786.00;;;;4994138;27;88968;-66
2021/12/01 07:33:07;;;;;;;0.83;0.40;;;5.20;99.90;5.40;98780.00;;;;4993710;27;88040;-67
2021/12/01 07:35:33;;;;;;;0.23;0.23;;;5.50;99.90;5.40;98784.00;;;;4992867;27;111396;-68
2021/12/01 07:37:59;;;;;;;0.40;0.40;;;5.50;99.90;5.40;98784.00;;;;4992214;27;107801;-66
2021/12/01 07:40:25;;;;;;;0.13;0.10;;;5.60;99.90;5.40;98796.00;;;;4992836;27;110715;-66
2021/12/01 07:42:51;;;;;;;0.63;0.40;;;5.50;99.90;5.40;98784.00;;;;5001773;27;87976;-67
2021/12/01 07:45:17;;;;;;;0.53;0.30;;;5.60;99.90;5.40;98781.00;;;;4993733;27;89226;-67
2021/12/01 07:47:44;;;;;;;0.53;0.47;;;5.50;99.90;5.40;98781.00;;;;4992626;27;102159;-66
2021/12/01 07:50:10;;;;;;;1.70;0.20;;;5.60;99.90;5.40;98768.00;;;;4998467;27;87630;-66
2021/12/01 07:52:38;;;;;;;0.50;0.50;;;5.60;99.90;5.40;98774.00;;;;4991854;27;87917;-67
2021/12/01 07:55:05;;;;;;;1.10;0.47;;;5.60;99.90;5.40;98776.00;;;;4992543;27;90086;-67
2021/12/01 07:57:31;;;;;;;0.70;0.60;;;5.50;99.90;5.40;98761.00;;;;5000316;27;89328;-67
2021/12/01 07:59:57;;;;;;;0.60;0.30;;;5.50;99.90;5.40;98757.00;;;;4992860;27;95623;-66
2021/12/01 08:02:22;;;;;;;1.43;1.23;;;5.50;99.90;5.40;98758.00;;;;4992927;27;87976;-68
2021/12/01 08:04:48;;;;;;;0.53;0.40;;;5.50;99.90;5.40;98740.00;;;;4996251;27;117436;-67
2021/12/01 08:07:14;;;;;;;0.73;0.20;;;5.50;99.90;5.40;98748.00;;;;4995538;27;118263;-66
2021/12/01 08:09:39;;;;;;;0.33;0.30;;;5.50;99.90;5.40;98734.00;;;;4995202;27;87820;-67
2021/12/01 08:12:07;;;;;;;0.40;0.30;;;5.50;99.90;5.40;98739.00;;;;4995178;27;87244;-67
2021/12/01 08:14:33;;;;;;;0.30;0.30;;;5.60;99.90;5.40;98732.00;;;;4993980;27;89103;-66
2021/12/01 08:16:59;;;;;;;0.50;0.50;;;5.50;99.90;5.40;98727.00;;;;4991985;27;118126;-68
2021/12/01 08:19:25;;;;;;;0.50;0.50;;;5.50;99.90;5.40;98719.00;;;;4995875;27;88893;-68
2021/12/01 08:21:50;;;;;;;0.37;0.37;;;5.50;99.90;5.40;98723.00;;;;4992469;27;87763;-69
2021/12/01 08:24:18;;;;;;;0.57;0.50;;;5.50;99.90;5.40;98732.00;;;;4993011;27;88762;-68
2021/12/01 08:26:45;;;;;;;3.73;0.70;;;5.50;99.90;5.40;98707.00;;;;4992818;27;88238;-69
2021/12/01 08:29:12;;;;;;;1.20;0.70;;;5.50;99.90;5.40;98706.00;;;;4992237;27;89384;-69
2021/12/01 08:31:39;;;;;;;2.97;0.77;;;5.50;99.90;5.40;98713.00;;;;4993216;27;87895;-67
2021/12/01 08:34:04;;;;;;;1.10;0.50;;;5.50;99.90;5.40;98713.00;;;;4992565;27;87912;-66
2021/12/01 08:36:30;;;;;;;3.33;1.73;;;5.50;99.90;5.40;98695.00;;;;4993233;27;90841;-66
2021/12/01 08:38:56;;;;;;;2.13;1.33;;;5.60;99.90;5.40;98697.00;;;;4992291;27;88261;-65
2021/12/01 08:41:22;;;;;;;2.13;1.63;;;5.50;99.90;5.40;98697.00;;;;4996306;27;87870;-66
2021/12/01 08:43:48;;;;;;;0.97;0.77;;;5.60;99.90;5.40;98712.00;;;;4990630;27;118282;-65
2021/12/01 08:46:14;;;;;;;1.83;1.47;;;5.50;99.90;5.40;98695.00;;;;4994304;27;118038;-67
2021/12/01 08:48:41;;;;;;;2.50;1.53;;;5.90;99.90;5.40;98698.00;;;;4993279;27;110914;-65
2021/12/01 08:51:07;;;;;;;1.20;1.10;;;5.50;99.90;5.40;98678.00;;;;4992211;27;94317;-66
2021/12/01 08:53:37;;;;;;;1.17;1.07;;;5.60;99.90;5.40;98682.00;;;;4994262;27;117452;-66
2021/12/01 08:56:04;;;;;;;1.33;1.23;;;5.60;99.90;5.50;98671.00;;;;4992657;27;87887;-66
2021/12/01 08:58:30;;;;;;;1.03;1.00;;;6.10;99.90;5.50;98668.00;;;;4991867;27;87791;-66
2021/12/01 09:00:56;;;;;;;1.20;1.10;;;5.60;99.90;5.50;98664.00;;;;4993301;27;108510;-66
2021/12/01 09:03:24;;;;;;;2.03;1.40;;;5.60;99.90;5.50;98664.00;;;;4992110;27;88740;-67
2021/12/01 09:05:51;;;;;;;1.50;0.90;;;5.60;99.90;5.50;98662.00;;;;4992600;27;87647;-66
2021/12/01 09:08:20;;;;;;;1.97;1.23;;;5.60;99.90;5.50;98655.00;;;;4992706;27;88805;-65
2021/12/01 09:10:47;;;;;;;1.27;0.80;;;5.60;99.90;5.50;98655.00;;;;4995683;27;88360;-66
2021/12/01 09:13:13;;;;;;;1.53;1.10;;;5.60;99.90;5.60;98642.00;;;;4997624;27;88696;-66
2021/12/01 09:15:39;;;;;;;1.10;1.00;;;5.70;99.90;5.50;98649.00;;;;5000579;27;88922;-66
2021/12/01 09:18:06;;;;;;;1.53;1.30;;;5.70;99.90;5.60;98635.00;;;;4995860;27;87876;-65
2021/12/01 09:20:31;;;;;;;1.33;1.13;;;5.70;99.90;5.60;98643.00;;;;4996116;27;87798;-66
2021/12/01 09:22:57;;;;;;;1.63;1.20;;;5.80;99.90;5.60;98636.00;;;;4998349;27;118160;-64
2021/12/01 09:25:24;;;;;;;1.03;0.83;;;5.80;99.90;5.60;98629.00;;;;4998975;27;87927;-65
2021/12/01 09:27:50;;;;;;;2.70;1.50;;;5.80;99.90;5.70;98635.00;;;;4997437;27;93836;-65
2021/12/01 09:30:17;;;;;;;1.17;1.03;;;5.80;99.90;5.70;98613.00;;;;4995006;27;108839;-65
2021/12/01 09:32:45;;;;;;;1.50;1.20;;;5.80;99.90;5.70;98611.00;;;;4995203;27;89682;-66
2021/12/01 09:35:13;;;;;;;1.97;1.63;;;5.90;99.90;5.80;98600.00;;;;4995835;27;96198;-66
2021/12/01 09:37:41;;;;;;;1.27;1.07;;;5.90;99.90;5.80;98593.00;;;;4996419;27;94951;-66
2021/12/01 09:40:15;;;;;;;1.37;1.13;;;5.90;99.90;5.80;98587.00;;;;4996896;27;89880;-66
2021/12/01 09:42:48;;;;;;;1.77;1.10;;;6.00;99.90;5.80;98588.00;;;;4995458;27;88159;-66
2021/12/01 09:45:16;;;;;;;1.13;1.03;;;6.00;99.90;5.90;98591.00;;;;4996499;27;89075;-66
2021/12/01 09:47:41;;;;;;;3.27;2.07;;;6.00;99.90;5.90;98584.00;;;;4996308;27;87896;-65
2021/12/01 09:50:08;;;;;;;3.43;1.33;;;6.10;99.90;5.90;98575.00;;;;4996923;27;99217;-65
2021/12/01 09:52:34;;;;;;;2.57;1.77;;;6.10;99.90;6.00;98574.00;;;;4994856;27;89270;-66
2021/12/01 09:55:01;;;;;;;1.27;1.17;;;6.10;99.90;6.10;98568.00;;;;4994877;27;88619;-67
2021/12/01 09:57:27;;;;;;;1.53;1.33;;;6.20;99.90;6.10;98569.00;;;;4997248;27;88776;-67
2021/12/01 09:59:53;;;;;;;1.43;1.23;;;6.20;99.90;6.20;98557.00;;;;4994807;27;87662;-67
2021/12/01 10:02:19;;;;;;;1.53;1.30;;;6.30;99.90;6.20;98541.00;;;;4995471;27;88035;-67
2021/12/01 10:04:45;;;;;;;1.10;0.97;;;6.30;99.90;6.30;98536.00;;;;4994255;27;88294;-67
2021/12/01 10:07:23;;;;;;;6.60;0.90;;;6.40;99.90;6.30;98521.00;;;;4994303;27;110836;-66
2021/12/01 10:09:56;;;;;;;0.70;0.70;;;6.30;99.90;6.40;98515.00;;;;4998349;27;94063;-68
2021/12/01 10:12:23;;;;;;;0.70;0.70;;;6.50;99.90;6.40;98510.00;;;;4994607;27;88058;-66
2021/12/01 10:14:53;;;;;;;1.10;1.00;;;6.50;99.90;6.50;98503.00;;;;4995235;27;89824;-68
2021/12/01 10:17:34;;;;;;;0.60;0.60;;;6.60;99.90;6.50;98496.00;;;;4994536;27;88014;-67
2021/12/01 10:20:15;;;;;;;0.97;0.97;;;6.60;99.90;6.60;98515.00;;;;5001861;27;87815;-67
2021/12/01 10:23:15;;;;;;;1.67;1.03;;;6.70;99.90;6.60;98507.00;;;;4993856;27;89629;-67
2021/12/01 10:25:44;;;;;;;1.23;0.80;;;6.70;99.90;6.70;98509.00;;;;4992837;27;89772;-66
2021/12/01 10:28:41;;;;;;;1.33;0.87;;;6.80;99.90;6.70;98491.00;;;;4993804;27;111543;-67
2021/12/01 10:31:07;;;;;;;0.73;0.60;;;6.80;99.90;6.70;98487.00;;;;4994534;27;88020;-67
2021/12/01 10:33:33;;;;;;;0.60;0.60;;;6.80;99.90;6.80;98479.00;;;;4994341;27;88980;-67
2021/12/01 10:36:02;;;;;;;0.60;0.60;;;6.80;99.90;6.80;98486.00;;;;4994220;27;94669;-66
2021/12/01 10:38:32;;;;;;;0.70;0.70;;;6.90;99.90;6.80;98486.00;;;;4994711;27;87787;-66
2021/12/01 10:41:10;;;;;;;0.63;0.50;;;6.90;99.90;6.80;98488.00;;;;4995112;27;87149;-66
2021/12/01 10:43:48;;;;;;;1.10;0.70;;;7.00;99.90;6.90;98470.00;;;;4991683;27;87738;-66
2021/12/01 10:46:17;;;;;;;0.50;0.50;;;7.20;99.90;7.00;98474.00;;;;4995318;27;87902;-66
2021/12/01 10:48:58;;;;;;;1.47;0.70;;;7.10;99.90;7.00;98472.00;;;;4992824;27;88780;-65
2021/12/01 10:51:36;;;;;;;0.63;0.63;;;7.10;99.90;7.00;98452.00;;;;4994125;27;87895;-65
2021/12/01 10:54:03;;;;;;;1.03;0.47;;;7.10;99.90;7.00;98447.00;;;;4991517;27;88610;-65
2021/12/01 10:56:30;;;;;;;0.43;0.43;;;7.10;99.90;7.00;98434.00;;;;4994268;27;99480;-65
2021/12/01 10:58:55;;;;;;;1.23;0.77;;;7.10;99.90;7.10;98447.00;;;;4993699;27;88087;-66
2021/12/01 11:01:25;;;;;;;0.93;0.60;;;7.20;99.90;7.10;98442.00;;;;4993670;27;87769;-66
2021/12/01 11:03:52;;;;;;;2.17;0.80;;;7.20;99.90;7.20;98441.00;;;;4991476;27;89266;-66
2021/12/01 11:06:23;;;;;;;3.77;0.70;;;7.20;99.90;7.30;98428.00;;;;4994319;27;88590;-65
2021/12/01 11:08:56;;;;;;;0.90;0.60;;;7.30;99.90;7.30;98414.00;;;;4994058;27;87792;-65
2021/12/01 11:11:25;;;;;;;0.50;0.50;;;8.30;99.90;7.30;98422.00;;;;4994485;27;87910;-66
2021/12/01 11:13:51;;;;;;;0.50;0.40;;;7.50;99.90;7.40;98412.00;;;;4993890;27;89509;-66